Time;durP1;ratioP1;P1;durP2;ratioP2;P2;SDS_P1;SDS_P2;PMS_P1;PMS_P2;Temp;Humidity;BMP_temperature;BMP_pressure;BME280_temperature;BME280_humidity;BME280_pressure;Samples;Min_cycle;Max_cycle;Signal;HPM_P1;HPM_P2
2022/01/16 00:00:40;;;;;;;101.87;36.03;;;3.10;99.90;;;;;;4842364;29;20068;-81
2022/01/16 00:06:13;;;;;;;81.43;33.30;;;3.10;99.90;;;;;;4845516;29;20034;-81
2022/01/16 00:08:49;;;;;;;101.47;35.50;;;3.00;99.90;;;;;;4844926;29;20073;-81
2022/01/16 00:11:23;;;;;;;89.40;36.00;;;3.00;99.90;;;;;;4843120;29;20105;-81
2022/01/16 00:13:55;;;;;;;91.57;33.28;;;3.00;99.90;;;;;;4842205;29;20049;-82
2022/01/16 00:16:29;;;;;;;80.55;31.45;;;3.00;99.90;;;;;;4840675;29;20049;-81
2022/01/16 00:19:23;;;;;;;102.28;36.13;;;3.00;99.90;;;;;;4842089;29;20038;-81
2022/01/16 00:21:58;;;;;;;83.47;31.70;;;2.90;99.90;;;;;;4844129;29;20053;-81
2022/01/16 00:24:59;;;;;;;73.93;29.20;;;2.90;99.90;;;;;;4844596;29;20041;-81
2022/01/16 00:27:35;;;;;;;78.70;29.73;;;2.90;99.90;;;;;;4845704;29;20045;-81
2022/01/16 00:30:05;;;;;;;74.63;30.07;;;2.90;99.90;;;;;;4844333;29;20361;-81
2022/01/16 00:32:38;;;;;;;92.68;34.63;;;2.90;99.90;;;;;;4851546;29;20041;-82
2022/01/16 00:35:14;;;;;;;85.57;33.60;;;2.90;99.90;;;;;;4839023;29;20046;-81
2022/01/16 00:37:48;;;;;;;79.47;32.17;;;2.90;99.90;;;;;;4843691;29;20037;-83
2022/01/16 00:40:41;;;;;;;;;;;2.90;99.90;;;;;;4842891;29;20053;-82
2022/01/16 00:43:11;;;;;;;78.03;30.40;;;2.90;99.90;;;;;;4844215;29;19920;-82
2022/01/16 00:45:59;;;;;;;78.80;30.43;;;2.90;99.90;;;;;;4826616;29;20042;-82
2022/01/16 00:48:50;;;;;;;99.57;35.73;;;2.90;99.90;;;;;;4839802;29;20064;-82
2022/01/16 00:51:25;;;;;;;70.73;30.77;;;2.90;99.90;;;;;;4828489;29;20049;-83
2022/01/16 00:54:02;;;;;;;117.27;36.70;;;2.90;99.90;;;;;;4824793;29;20045;-84
2022/01/16 00:56:38;;;;;;;95.30;35.27;;;2.90;99.90;;;;;;4844916;29;20049;-84
2022/01/16 00:59:12;;;;;;;83.23;32.80;;;2.90;99.90;;;;;;4843083;29;20038;-82
2022/01/16 01:01:39;;;;;;;87.97;32.77;;;2.90;99.90;;;;;;4838151;29;20156;-82
2022/01/16 01:04:15;;;;;;;103.53;38.43;;;2.90;99.90;;;;;;4842989;29;20383;-81
2022/01/16 01:06:51;;;;;;;91.67;35.27;;;2.90;99.90;;;;;;4804383;29;20037;-83
2022/01/16 01:09:25;;;;;;;99.93;38.03;;;2.90;99.90;;;;;;4839339;29;20497;-82
2022/01/16 01:11:56;;;;;;;88.93;37.40;;;2.90;99.90;;;;;;4843146;29;20041;-84
2022/01/16 01:14:37;;;;;;;94.33;38.10;;;2.90;99.90;;;;;;4833095;29;20046;-85
2022/01/16 01:17:13;;;;;;;115.87;37.77;;;3.00;99.90;;;;;;4845883;29;20061;-83
2022/01/16 01:19:48;;;;;;;103.63;38.23;;;3.00;99.90;;;;;;4851583;29;20046;-84
2022/01/16 01:22:23;;;;;;;89.13;34.97;;;3.00;99.90;;;;;;4835641;29;20040;-84
2022/01/16 01:24:56;;;;;;;80.80;33.40;;;3.00;99.90;;;;;;4848008;29;20041;-84
2022/01/16 01:27:31;;;;;;;86.20;35.95;;;2.90;99.90;;;;;;4851116;29;20038;-84
2022/01/16 01:30:07;;;;;;;77.27;31.63;;;2.90;99.90;;;;;;4839032;29;20052;-84
2022/01/16 01:32:37;;;;;;;80.87;33.53;;;2.90;99.90;;;;;;4853478;29;20038;-83
2022/01/16 01:35:05;;;;;;;82.60;32.60;;;2.90;99.90;;;;;;4836643;29;20045;-83
2022/01/16 01:37:32;;;;;;;82.68;35.67;;;2.90;99.90;;;;;;4833391;29;20054;-83
2022/01/16 01:39:59;;;;;;;86.03;36.50;;;2.80;99.90;;;;;;4854906;29;20040;-83
2022/01/16 01:42:32;;;;;;;77.63;31.57;;;2.80;99.90;;;;;;4848967;29;20061;-83
2022/01/16 01:53:17;;;;;;;91.07;35.33;;;2.80;99.90;;;;;;4856576;29;20512;-84
2022/01/16 01:55:44;;;;;;;64.63;28.07;;;2.80;99.90;;;;;;4849209;29;20052;-83
2022/01/16 01:58:11;;;;;;;122.17;35.97;;;2.80;99.90;;;;;;4850005;29;20049;-83
2022/01/16 02:00:42;;;;;;;66.20;28.67;;;2.80;99.90;;;;;;4850819;29;20386;-83
2022/01/16 02:05:43;;;;;;;65.00;28.87;;;2.80;99.90;;;;;;4850943;29;20053;-83
2022/01/16 02:08:10;;;;;;;71.93;30.40;;;2.80;99.90;;;;;;4850019;29;20414;-83
2022/01/16 02:10:38;;;;;;;81.73;35.97;;;2.80;99.90;;;;;;4836095;29;20398;-84
2022/01/16 02:13:17;;;;;;;74.53;29.53;;;2.80;99.90;;;;;;4835140;29;20041;-84
2022/01/16 02:32:12;;;;;;;77.23;31.40;;;2.70;99.90;;;;;;4845736;29;20046;-84
2022/01/16 02:34:43;;;;;;;91.13;30.73;;;2.70;99.90;;;;;;4849701;29;20050;-84
2022/01/16 02:37:13;;;;;;;142.13;40.40;;;2.70;99.90;;;;;;4836247;29;20401;-83
2022/01/16 02:39:45;;;;;;;62.57;28.13;;;2.70;99.90;;;;;;4849564;29;20476;-83
2022/01/16 02:42:13;;;;;;;66.55;29.00;;;2.70;99.90;;;;;;4844996;29;20422;-84
2022/01/16 02:44:48;;;;;;;84.15;30.02;;;2.70;99.90;;;;;;4850223;29;20038;-84
2022/01/16 02:47:20;;;;;;;70.27;27.67;;;2.70;99.90;;;;;;4849860;29;20521;-84
2022/01/16 02:49:48;;;;;;;70.90;27.93;;;2.80;99.90;;;;;;4863017;29;20042;-84
2022/01/16 02:52:18;;;;;;;76.50;27.60;;;2.80;99.90;;;;;;4831713;29;20041;-84
2022/01/16 02:54:46;;;;;;;77.77;30.07;;;2.80;99.90;;;;;;4848968;29;20489;-84
2022/01/16 02:57:20;;;;;;;84.88;32.33;;;2.80;99.90;;;;;;4814916;29;20053;-84
2022/01/16 02:59:49;;;;;;;66.93;27.98;;;2.80;99.90;;;;;;4834794;29;20034;-84
2022/01/16 03:02:24;;;;;;;77.85;26.63;;;2.80;99.90;;;;;;4826002;29;20053;-84
2022/01/16 03:04:55;;;;;;;72.80;25.10;;;2.80;99.90;;;;;;4828394;29;20054;-84
2022/01/16 03:07:22;;;;;;;70.22;28.73;;;2.80;99.90;;;;;;4843453;29;20553;-84
2022/01/16 03:12:42;;;;;;;54.57;23.33;;;2.80;99.90;;;;;;4845773;29;20041;-84
2022/01/16 03:15:09;;;;;;;75.93;28.55;;;2.90;99.90;;;;;;4847905;29;20046;-84
2022/01/16 03:17:51;;;;;;;78.47;28.60;;;2.90;99.90;;;;;;4834176;29;20053;-84
2022/01/16 03:23:07;;;;;;;76.47;29.30;;;2.90;99.90;;;;;;4855424;29;20061;-84
2022/01/16 03:25:34;;;;;;;63.50;27.23;;;2.90;99.90;;;;;;4850271;29;20049;-84
2022/01/16 03:28:00;;;;;;;71.77;27.80;;;2.90;99.90;;;;;;4847415;29;20038;-84
2022/01/16 03:30:29;;;;;;;67.90;27.43;;;2.90;99.90;;;;;;4836101;29;20493;-84
2022/01/16 03:32:56;;;;;;;79.43;29.50;;;2.90;99.90;;;;;;4834304;29;20056;-84
2022/01/16 03:35:24;;;;;;;69.47;27.52;;;3.00;99.90;;;;;;4849898;29;20502;-84
2022/01/16 03:37:52;;;;;;;83.87;27.87;;;2.90;99.90;;;;;;4838396;29;20039;-84
2022/01/16 03:40:21;;;;;;;76.10;30.23;;;3.00;99.90;;;;;;4850649;29;20044;-84
2022/01/16 03:42:48;;;;;;;101.60;29.60;;;2.90;99.90;;;;;;4833877;29;20038;-83
2022/01/16 03:45:15;;;;;;;94.68;30.33;;;3.00;99.90;;;;;;4835102;29;20056;-84
2022/01/16 03:47:42;;;;;;;82.80;29.23;;;3.00;99.90;;;;;;4846954;29;20037;-84
2022/01/16 03:50:10;;;;;;;93.10;32.90;;;3.00;99.90;;;;;;4833065;29;20061;-84
2022/01/16 03:52:37;;;;;;;86.63;31.03;;;3.00;99.90;;;;;;4811829;29;20041;-84
2022/01/16 03:55:07;;;;;;;80.57;29.92;;;3.00;99.90;;;;;;4848353;29;20041;-84
2022/01/16 03:57:33;;;;;;;102.13;30.57;;;3.00;99.90;;;;;;4834244;29;20489;-84
2022/01/16 04:00:00;;;;;;;108.70;30.60;;;3.00;99.90;;;;;;4840992;29;20052;-84
2022/01/16 04:02:27;;;;;;;107.83;29.47;;;3.00;99.90;;;;;;4848816;29;20045;-84
2022/01/16 04:04:53;;;;;;;93.07;29.47;;;3.00;99.90;;;;;;4853670;29;20034;-84
2022/01/16 04:07:26;;;;;;;89.73;29.13;;;3.00;99.90;;;;;;4837442;29;20037;-84
2022/01/16 04:09:53;;;;;;;81.30;29.07;;;3.00;99.90;;;;;;4836990;29;20052;-84
2022/01/16 04:12:23;;;;;;;95.80;31.70;;;3.00;99.90;;;;;;4843172;29;20045;-81
2022/01/16 04:17:21;;;;;;;66.57;27.37;;;3.10;99.90;;;;;;4840936;29;20033;-81
2022/01/16 04:19:49;;;;;;;88.43;25.70;;;3.10;99.90;;;;;;4838699;29;20045;-81
2022/01/16 04:22:16;;;;;;;108.83;30.97;;;3.10;99.90;;;;;;4839709;29;20052;-80
2022/01/16 04:24:55;;;;;;;92.10;30.33;;;3.10;99.90;;;;;;4832350;29;20049;-80
2022/01/16 04:27:24;;;;;;;99.38;31.80;;;3.10;99.90;;;;;;4838005;29;20042;-80
2022/01/16 04:30:13;;;;;;;77.63;28.77;;;3.10;99.90;;;;;;4837342;29;20046;-81
2022/01/16 04:33:18;;;;;;;89.93;33.97;;;3.10;99.90;;;;;;4827982;29;20061;-80
2022/01/16 04:36:36;;;;;;;;;;;;;;;;;;;;;
2022/01/16 04:39:34;;;;;;;87.63;31.73;;;3.10;99.90;;;;;;4839604;29;20042;-80
2022/01/16 04:45:52;;;;;;;102.97;33.23;;;3.10;99.90;;;;;;4852294;29;20044;-80
2022/01/16 04:52:32;;;;;;;135.47;37.53;;;3.10;99.90;;;;;;4847950;29;20052;-80
2022/01/16 04:55:09;;;;;;;87.40;33.47;;;3.10;99.90;;;;;;4844424;29;20045;-80
2022/01/16 04:57:42;;;;;;;92.03;33.53;;;3.10;99.90;;;;;;4827680;29;20734;-80
2022/01/16 05:00:31;;;;;;;94.23;32.33;;;3.10;99.90;;;;;;4855134;29;20053;-80
2022/01/16 05:03:13;;;;;;;95.37;36.27;;;3.10;99.90;;;;;;4846644;29;20497;-80
2022/01/16 05:06:16;;;;;;;97.50;35.10;;;3.10;99.90;;;;;;4844919;29;20033;-80
2022/01/16 05:09:24;;;;;;;103.13;35.87;;;3.20;99.90;;;;;;4824764;29;20065;-80
2022/01/16 05:11:58;;;;;;;89.47;33.17;;;3.10;99.90;;;;;;4837695;29;20054;-81
2022/01/16 05:17:39;;;;;;;83.50;36.30;;;3.10;99.90;;;;;;4839881;29;20049;-80
2022/01/16 05:20:54;;;;;;;92.88;38.03;;;3.20;99.90;;;;;;4824443;29;20416;-80
2022/01/16 05:23:44;;;;;;;101.47;41.03;;;3.20;99.90;;;;;;4834828;29;20438;-80
2022/01/16 05:26:43;;;;;;;84.73;34.67;;;3.20;99.90;;;;;;4827298;29;20053;-80
2022/01/16 05:29:38;;;;;;;92.73;37.03;;;3.20;99.90;;;;;;4827360;29;20046;-80
2022/01/16 05:32:35;;;;;;;83.50;37.47;;;3.20;99.90;;;;;;4822838;29;20418;-80
2022/01/16 05:35:07;;;;;;;81.00;34.63;;;3.20;99.90;;;;;;4819156;29;20098;-80
2022/01/16 05:37:41;;;;;;;91.38;38.35;;;3.20;99.90;;;;;;4839570;29;20390;-80
2022/01/16 05:40:26;;;;;;;76.87;34.20;;;3.20;99.90;;;;;;4836838;29;20046;-80
2022/01/16 05:43:16;;;;;;;78.05;34.85;;;3.30;99.90;;;;;;4812768;29;20056;-80
2022/01/16 05:46:08;;;;;;;88.80;37.63;;;3.30;99.90;;;;;;4835958;29;20056;-80
2022/01/16 05:49:01;;;;;;;81.90;37.78;;;3.30;99.90;;;;;;4821274;29;20056;-80
2022/01/16 05:51:47;;;;;;;91.20;41.22;;;3.30;99.90;;;;;;4841545;29;20523;-80
2022/01/16 05:54:28;;;;;;;98.22;40.20;;;3.30;99.90;;;;;;4836182;29;20474;-80
2022/01/16 05:57:02;;;;;;;98.93;41.47;;;3.30;99.90;;;;;;4839535;29;20057;-80
2022/01/16 05:59:28;;;;;;;100.93;44.33;;;3.30;99.90;;;;;;4839482;29;20041;-80
2022/01/16 06:01:59;;;;;;;101.50;43.95;;;3.30;99.90;;;;;;4840665;29;20585;-80
2022/01/16 06:04:27;;;;;;;104.20;47.47;;;3.40;99.90;;;;;;4840085;29;20054;-80
2022/01/16 06:07:30;;;;;;;90.78;40.80;;;3.40;99.90;;;;;;4839751;29;20800;-80
2022/01/16 06:10:11;;;;;;;94.38;40.47;;;3.40;99.90;;;;;;4835486;29;20053;-80
2022/01/16 06:12:49;;;;;;;100.20;42.58;;;3.30;99.90;;;;;;4835075;29;20944;-80
2022/01/16 06:15:22;;;;;;;114.70;47.70;;;3.30;99.90;;;;;;4817442;29;20046;-80
2022/01/16 06:18:04;;;;;;;101.57;44.07;;;3.30;99.90;;;;;;4840616;29;20498;-83
2022/01/16 06:20:41;;;;;;;98.53;44.90;;;3.30;99.90;;;;;;4843972;29;20050;-84
2022/01/16 06:23:42;;;;;;;113.32;47.28;;;3.30;99.90;;;;;;4848751;29;20053;-83
2022/01/16 06:26:13;;;;;;;101.55;44.85;;;3.30;99.90;;;;;;4851052;29;20041;-84
2022/01/16 06:28:43;;;;;;;107.07;46.63;;;3.30;99.90;;;;;;4816676;29;20529;-83
2022/01/16 06:31:13;;;;;;;103.18;46.38;;;3.30;99.90;;;;;;4831222;29;20049;-84
2022/01/16 06:33:44;;;;;;;92.97;43.55;;;3.40;99.90;;;;;;4830735;29;20053;-80
2022/01/16 06:36:30;;;;;;;117.93;51.80;;;3.40;99.90;;;;;;4841325;29;20381;-80
2022/01/16 06:39:04;;;;;;;104.93;46.92;;;3.30;99.90;;;;;;4837187;29;20495;-80
2022/01/16 06:41:48;;;;;;;103.40;45.40;;;3.30;99.90;;;;;;4840659;29;20057;-80
2022/01/16 06:44:33;;;;;;;111.03;45.90;;;3.40;99.90;;;;;;4838957;29;20490;-80
2022/01/16 06:47:10;;;;;;;103.82;46.58;;;3.40;99.90;;;;;;4840690;29;20046;-80
2022/01/16 06:49:39;;;;;;;122.20;53.43;;;3.40;99.90;;;;;;4839392;29;20383;-80
2022/01/16 06:52:17;;;;;;;111.70;50.22;;;3.40;99.90;;;;;;4839884;29;20378;-80
2022/01/16 06:54:47;;;;;;;114.10;52.40;;;3.30;99.90;;;;;;4829109;29;20494;-80
2022/01/16 06:57:21;;;;;;;111.53;49.67;;;3.30;99.90;;;;;;4825440;29;20042;-81
2022/01/16 07:00:16;;;;;;;117.80;52.88;;;3.30;99.90;;;;;;4837140;29;20041;-80
2022/01/16 07:02:53;;;;;;;109.72;47.45;;;3.30;99.90;;;;;;4842705;29;20431;-81
2022/01/16 07:05:24;;;;;;;110.40;49.13;;;3.30;99.90;;;;;;4842690;29;20435;-81
2022/01/16 07:08:23;;;;;;;115.53;50.10;;;3.40;99.90;;;;;;4843737;29;20041;-80
2022/01/16 07:11:11;;;;;;;108.43;51.70;;;3.40;99.90;;;;;;4838279;29;20045;-80
2022/01/16 07:13:47;;;;;;;116.33;52.77;;;3.40;99.90;;;;;;4838365;29;20072;-80
2022/01/16 07:16:16;;;;;;;103.45;48.15;;;3.40;99.90;;;;;;4838622;29;20038;-80
2022/01/16 07:18:51;;;;;;;116.03;53.37;;;3.40;99.90;;;;;;4825403;29;20398;-81
2022/01/16 07:21:23;;;;;;;129.48;57.85;;;3.40;99.90;;;;;;4839184;29;20045;-80
2022/01/16 07:23:49;;;;;;;112.35;53.22;;;3.40;99.90;;;;;;4823943;29;20045;-78
2022/01/16 07:26:19;;;;;;;109.93;53.13;;;3.40;99.90;;;;;;4840612;29;20042;-78
2022/01/16 07:28:47;;;;;;;115.05;54.90;;;3.40;99.90;;;;;;4825950;29;20041;-79
2022/01/16 07:31:18;;;;;;;95.70;49.53;;;3.40;99.90;;;;;;4830204;29;20065;-79
2022/01/16 07:33:53;;;;;;;102.88;49.80;;;3.40;99.90;;;;;;4839094;29;20049;-81
2022/01/16 07:36:26;;;;;;;109.67;52.90;;;3.50;99.90;;;;;;4836895;29;20542;-81
2022/01/16 07:38:52;;;;;;;97.77;49.50;;;3.50;99.90;;;;;;4825075;29;20046;-81
2022/01/16 07:41:23;;;;;;;97.00;49.60;;;3.50;99.90;;;;;;4820192;29;20037;-80
2022/01/16 07:44:01;;;;;;;90.88;48.10;;;3.50;99.90;;;;;;4841642;29;20049;-79
2022/01/16 07:46:31;;;;;;;81.93;41.13;;;3.50;99.90;;;;;;4840069;29;20045;-80
2022/01/16 07:49:01;;;;;;;122.90;57.35;;;3.50;99.90;;;;;;4838341;29;20516;-81
2022/01/16 07:51:30;;;;;;;97.55;49.28;;;3.50;99.90;;;;;;4838421;29;20505;-80
2022/01/16 07:53:56;;;;;;;101.20;52.35;;;3.60;99.90;;;;;;4807146;29;20478;-81
2022/01/16 07:56:23;;;;;;;89.15;47.40;;;3.60;99.90;;;;;;4838131;29;20485;-81
2022/01/16 07:58:50;;;;;;;87.68;44.97;;;3.60;99.90;;;;;;4842463;29;20045;-81
2022/01/16 08:01:17;;;;;;;77.83;44.27;;;3.60;99.90;;;;;;4837267;29;20141;-81
2022/01/16 08:03:43;;;;;;;94.43;46.33;;;3.60;99.90;;;;;;4838708;29;20058;-81
2022/01/16 08:06:20;;;;;;;82.50;44.53;;;3.60;99.90;;;;;;4837384;29;20505;-79
2022/01/16 08:08:48;;;;;;;84.18;44.35;;;3.60;99.90;;;;;;4839413;29;20478;-81
2022/01/16 08:11:17;;;;;;;83.43;44.70;;;3.60;99.90;;;;;;4821087;29;20061;-81
2022/01/16 08:13:44;;;;;;;70.57;39.80;;;3.60;99.90;;;;;;4838720;29;20516;-84
2022/01/16 08:16:14;;;;;;;85.57;43.77;;;3.60;99.90;;;;;;4834601;29;20045;-84
2022/01/16 08:18:43;;;;;;;77.25;43.70;;;3.60;99.90;;;;;;4851325;29;20033;-84
2022/01/16 08:21:18;;;;;;;89.30;41.33;;;3.60;99.90;;;;;;4850664;29;20036;-84
2022/01/16 08:23:48;;;;;;;83.47;44.80;;;3.60;99.90;;;;;;4825498;29;20136;-81
2022/01/16 08:26:14;;;;;;;88.78;45.50;;;3.70;99.90;;;;;;4837569;29;20045;-81
2022/01/16 08:29:04;;;;;;;85.57;44.83;;;3.70;99.90;;;;;;4828862;29;20053;-80
2022/01/16 08:31:30;;;;;;;76.38;41.42;;;3.80;99.90;;;;;;4839803;29;20033;-81
2022/01/16 08:33:58;;;;;;;81.72;45.25;;;3.70;99.90;;;;;;4840048;29;20061;-81
2022/01/16 08:36:25;;;;;;;85.22;44.85;;;3.80;99.90;;;;;;4843265;29;20061;-81
2022/01/16 08:38:54;;;;;;;79.90;42.80;;;3.90;99.90;;;;;;4837143;29;20049;-82
2022/01/16 08:41:31;;;;;;;93.88;48.30;;;3.90;99.90;;;;;;4840169;29;20517;-81
2022/01/16 08:44:06;;;;;;;72.90;39.90;;;3.90;99.90;;;;;;4839532;29;20481;-81
2022/01/16 08:46:36;;;;;;;78.63;43.08;;;3.90;99.90;;;;;;4838055;29;20038;-81
2022/01/16 08:49:05;;;;;;;82.85;45.67;;;4.00;99.90;;;;;;4835992;29;20682;-81
2022/01/16 08:51:39;;;;;;;86.67;46.03;;;4.00;99.90;;;;;;4843321;29;20054;-79
2022/01/16 08:54:06;;;;;;;82.45;45.20;;;4.10;99.90;;;;;;4838495;29;20054;-83
2022/01/16 08:56:36;;;;;;;74.68;41.10;;;4.10;99.90;;;;;;4837232;29;20424;-81
2022/01/16 08:59:03;;;;;;;82.25;45.03;;;4.20;99.90;;;;;;4836349;29;20501;-81
2022/01/16 09:01:31;;;;;;;76.32;45.78;;;4.20;99.90;;;;;;4838190;29;20045;-81
2022/01/16 09:03:57;;;;;;;75.15;42.85;;;4.20;99.90;;;;;;4827041;29;20636;-82
2022/01/16 09:06:27;;;;;;;64.60;40.30;;;4.30;99.90;;;;;;4837006;29;20053;-82
2022/01/16 09:09:01;;;;;;;67.57;38.65;;;4.40;99.90;;;;;;4838506;29;20042;-82
2022/01/16 09:11:37;;;;;;;72.82;40.22;;;4.40;99.90;;;;;;4837501;29;20347;-83
2022/01/16 09:14:15;;;;;;;71.22;40.67;;;4.50;99.90;;;;;;4836936;29;20060;-78
2022/01/16 09:16:44;;;;;;;61.75;37.25;;;4.50;99.90;;;;;;4835911;29;20429;-79
2022/01/16 09:19:10;;;;;;;69.43;39.75;;;4.50;99.90;;;;;;4839679;29;20159;-80
2022/01/16 09:22:09;;;;;;;69.38;40.80;;;4.60;99.90;;;;;;4835165;29;20045;-80
2022/01/16 09:24:53;;;;;;;60.47;36.85;;;4.70;99.90;;;;;;4821131;29;20057;-78
2022/01/16 09:27:23;;;;;;;69.68;38.13;;;4.70;99.90;;;;;;4838509;29;20061;-79
2022/01/16 09:29:56;;;;;;;85.38;44.83;;;4.70;99.90;;;;;;4837825;29;20061;-86
2022/01/16 09:32:36;;;;;;;79.78;45.22;;;4.80;99.90;;;;;;4824756;29;20045;-85
2022/01/16 09:36:17;;;;;;;69.63;38.92;;;4.80;99.90;;;;;;4842848;29;20403;-85
2022/01/16 09:39:31;;;;;;;58.90;35.15;;;4.90;99.90;;;;;;4846850;29;20042;-83
2022/01/16 09:42:26;;;;;;;60.72;35.58;;;4.90;99.90;;;;;;4832313;29;20058;-84
2022/01/16 09:44:57;;;;;;;62.85;35.53;;;5.00;99.90;;;;;;4839468;29;20052;-85
2022/01/16 09:47:23;;;;;;;65.15;38.28;;;5.00;99.90;;;;;;4840775;29;20037;-84
2022/01/16 09:49:55;;;;;;;64.85;37.58;;;5.00;99.90;;;;;;4839313;29;20049;-84
2022/01/16 09:52:29;;;;;;;66.53;38.00;;;5.10;99.90;;;;;;4828014;29;20502;-84
2022/01/16 09:55:01;;;;;;;;;;;5.10;99.90;;;;;;4843228;29;20046;-81
2022/01/16 09:57:56;;;;;;;58.85;33.03;;;5.10;99.90;;;;;;4845450;29;20289;-81
2022/01/16 10:00:32;;;;;;;62.00;34.97;;;5.10;99.90;;;;;;4841627;29;20041;-83
2022/01/16 10:03:09;;;;;;;69.25;39.47;;;5.20;99.90;;;;;;4838396;29;20053;-83
2022/01/16 10:06:24;;;;;;;68.32;36.00;;;5.20;99.90;;;;;;4830104;29;20045;-84
2022/01/16 10:09:17;;;;;;;60.55;33.33;;;5.20;99.90;;;;;;4843355;29;20057;-81
2022/01/16 10:12:18;;;;;;;69.78;37.17;;;5.30;99.90;;;;;;4838143;29;20045;-84
2022/01/16 10:14:53;;;;;;;65.95;36.35;;;5.30;99.90;;;;;;4841480;29;20049;-80
2022/01/16 10:17:52;;;;;;;67.13;36.85;;;5.30;99.90;;;;;;4847401;29;20042;-80
2022/01/16 10:20:30;;;;;;;71.15;36.83;;;5.30;99.90;;;;;;4832395;29;20512;-79
2022/01/16 10:23:37;;;;;;;77.50;40.92;;;5.40;99.90;;;;;;4851417;29;20505;-80
2022/01/16 10:26:29;;;;;;;78.68;40.70;;;5.40;99.90;;;;;;4844234;29;20060;-80
2022/01/16 10:29:31;;;;;;;72.30;38.40;;;5.40;99.90;;;;;;4838069;29;20126;-80
2022/01/16 10:32:11;;;;;;;79.60;39.28;;;5.40;99.90;;;;;;4838147;29;20033;-80
2022/01/16 10:34:47;;;;;;;75.60;36.67;;;5.50;99.90;;;;;;4841253;29;20075;-80
2022/01/16 10:37:30;;;;;;;81.55;39.95;;;5.50;99.90;;;;;;4822843;29;20050;-80
2022/01/16 10:40:34;;;;;;;95.25;45.83;;;5.50;99.90;;;;;;4840106;29;20054;-80
2022/01/16 10:43:22;;;;;;;92.97;46.03;;;5.50;99.90;;;;;;4818598;29;20057;-79
2022/01/16 10:45:59;;;;;;;91.00;44.50;;;5.50;99.90;;;;;;4825363;29;20046;-79
2022/01/16 10:48:32;;;;;;;83.03;41.53;;;5.50;99.90;;;;;;4841440;29;20432;-79
2022/01/16 10:51:03;;;;;;;84.43;42.70;;;5.50;99.90;;;;;;4839852;29;20726;-79
2022/01/16 10:53:40;;;;;;;91.97;43.17;;;5.60;99.90;;;;;;4825677;29;20049;-79
2022/01/16 10:56:07;;;;;;;87.95;43.83;;;5.50;99.90;;;;;;4842146;29;20620;-79
2022/01/16 10:58:43;;;;;;;91.57;44.42;;;5.60;99.90;;;;;;4840864;29;20037;-79
2022/01/16 11:01:16;;;;;;;95.05;44.15;;;5.60;99.90;;;;;;4836898;29;20030;-78
2022/01/16 11:03:48;;;;;;;75.18;38.15;;;5.60;99.90;;;;;;4838812;29;20410;-78
2022/01/16 11:06:29;;;;;;;84.25;42.70;;;5.70;99.90;;;;;;4838086;29;20513;-78
2022/01/16 11:09:01;;;;;;;93.03;47.08;;;5.70;99.90;;;;;;4820860;29;20034;-78
2022/01/16 11:11:32;;;;;;;89.03;43.87;;;5.70;99.90;;;;;;4841626;29;20057;-79
2022/01/16 11:14:06;;;;;;;90.82;44.88;;;5.70;99.90;;;;;;4842325;29;20033;-78
2022/01/16 11:16:42;;;;;;;78.95;40.75;;;5.70;99.90;;;;;;4837991;29;20418;-78
2022/01/16 11:19:54;;;;;;;98.47;46.83;;;5.80;99.90;;;;;;4838222;29;20137;-78
2022/01/16 11:22:34;;;;;;;102.38;47.28;;;5.80;99.90;;;;;;4837197;29;20045;-78
2022/01/16 11:25:22;;;;;;;;;;;;;;;;;;;;;
2022/01/16 11:27:51;;;;;;;98.65;44.85;;;5.80;99.90;;;;;;4830746;29;20060;-80
2022/01/16 11:30:22;;;;;;;95.60;45.88;;;5.80;99.90;;;;;;4812107;29;20065;-82
2022/01/16 11:33:05;;;;;;;97.47;46.55;;;5.80;99.90;;;;;;4843002;29;20053;-82
2022/01/16 11:35:40;;;;;;;102.30;49.28;;;5.80;99.90;;;;;;4820798;29;20483;-81
2022/01/16 11:38:08;;;;;;;113.88;53.22;;;5.80;99.90;;;;;;4839594;29;20394;-81
2022/01/16 11:40:47;;;;;;;110.15;48.97;;;5.80;99.90;;;;;;4839280;29;20382;-81
2022/01/16 11:43:23;;;;;;;100.40;47.30;;;5.80;99.90;;;;;;4840828;29;20267;-81
2022/01/16 11:46:16;;;;;;;103.88;47.88;;;5.80;99.90;;;;;;4822012;29;20254;-81
2022/01/16 11:48:53;;;;;;;107.00;48.15;;;5.80;99.90;;;;;;4843480;29;20514;-81
2022/01/16 11:51:32;;;;;;;111.72;51.53;;;5.90;99.90;;;;;;4842977;29;20045;-82
2022/01/16 11:54:21;;;;;;;102.13;50.17;;;5.80;99.90;;;;;;4843614;29;20573;-77
2022/01/16 11:56:59;;;;;;;100.78;46.35;;;5.90;99.90;;;;;;4839854;29;20053;-80
2022/01/16 11:59:38;;;;;;;95.50;45.95;;;5.80;99.90;;;;;;4842009;29;20044;-80
2022/01/16 12:02:08;;;;;;;104.93;47.72;;;5.90;99.90;;;;;;4837086;29;20057;-80
2022/01/16 12:04:47;;;;;;;101.65;46.42;;;5.90;99.90;;;;;;4838416;29;20042;-80
2022/01/16 12:07:15;;;;;;;109.93;46.10;;;5.90;99.90;;;;;;4822762;29;20424;-80
2022/01/16 12:12:17;;;;;;;106.78;46.78;;;5.90;99.90;;;;;;4839789;29;20288;-80
2022/01/16 12:14:52;;;;;;;109.85;48.42;;;5.90;99.90;;;;;;4841911;29;20057;-80
2022/01/16 12:17:31;;;;;;;108.97;46.88;;;5.90;99.90;;;;;;4839943;29;20394;-80
2022/01/16 12:20:21;;;;;;;105.50;46.45;;;6.00;99.90;;;;;;4840108;29;20052;-80
2022/01/16 12:23:05;;;;;;;118.15;49.55;;;6.00;99.90;;;;;;4814514;29;20042;-80
2022/01/16 12:25:56;;;;;;;107.55;45.90;;;6.00;99.90;;;;;;4842304;29;20529;-80
2022/01/16 12:28:25;;;;;;;103.60;45.08;;;6.00;99.90;;;;;;4824546;29;20053;-80
2022/01/16 12:31:01;;;;;;;113.68;47.60;;;6.00;99.90;;;;;;4836857;29;20049;-79
2022/01/16 12:33:47;;;;;;;107.03;44.80;;;6.00;99.90;;;;;;4842360;29;20038;-80
2022/01/16 12:36:19;;;;;;;113.97;47.38;;;6.10;99.90;;;;;;4847620;29;20064;-80
2022/01/16 12:38:50;;;;;;;123.00;52.50;;;6.10;99.90;;;;;;4820693;29;20097;-80
2022/01/16 12:41:22;;;;;;;111.93;45.88;;;6.10;99.90;;;;;;4838808;29;20038;-80
2022/01/16 12:44:01;;;;;;;100.30;42.03;;;6.10;99.90;;;;;;4837248;29;20041;-79
2022/01/16 12:46:39;;;;;;;107.72;45.72;;;6.10;99.90;;;;;;4823769;29;20041;-80
2022/01/16 12:49:15;;;;;;;114.38;47.28;;;6.10;99.90;;;;;;4837569;29;20041;-80
2022/01/16 12:51:44;;;;;;;99.30;41.60;;;6.20;99.90;;;;;;4853892;29;20399;-79
2022/01/16 12:54:14;;;;;;;106.63;43.40;;;6.20;99.90;;;;;;4821380;29;20056;-79
2022/01/16 12:56:53;;;;;;;104.97;43.50;;;6.20;99.90;;;;;;4822865;29;20046;-79
2022/01/16 12:59:22;;;;;;;116.15;46.63;;;6.20;99.90;;;;;;4839244;29;20410;-79
2022/01/16 13:01:54;;;;;;;109.53;46.10;;;6.20;99.90;;;;;;4821462;29;20049;-79
2022/01/16 13:04:26;;;;;;;118.93;46.70;;;6.20;99.90;;;;;;4834706;29;20041;-79
2022/01/16 13:06:58;;;;;;;107.05;45.17;;;6.20;99.90;;;;;;4821857;29;20049;-79
2022/01/16 13:09:26;;;;;;;109.10;46.42;;;6.20;99.90;;;;;;4822315;29;20060;-79
2022/01/16 13:11:56;;;;;;;109.30;45.15;;;6.30;99.90;;;;;;4829808;29;20045;-79
2022/01/16 13:14:26;;;;;;;105.95;44.42;;;6.30;99.90;;;;;;4840633;29;20042;-79
2022/01/16 13:17:01;;;;;;;118.40;46.90;;;6.30;99.90;;;;;;4840839;29;20426;-79
2022/01/16 13:19:38;;;;;;;103.85;45.42;;;6.40;99.90;;;;;;4824506;29;20382;-79
2022/01/16 13:22:12;;;;;;;109.70;44.50;;;6.40;99.90;;;;;;4831216;29;20045;-79
2022/01/16 13:24:41;;;;;;;102.78;43.40;;;6.40;99.90;;;;;;4840696;29;20038;-79
2022/01/16 13:27:26;;;;;;;115.63;47.40;;;6.40;99.90;;;;;;4841106;29;20029;-79
2022/01/16 13:29:58;;;;;;;106.55;46.97;;;6.50;99.90;;;;;;4822581;29;20041;-79
2022/01/16 13:32:36;;;;;;;115.72;50.05;;;6.50;99.90;;;;;;4842205;29;20033;-79
2022/01/16 13:35:25;;;;;;;108.97;46.72;;;6.50;99.90;;;;;;4837640;29;20049;-79
2022/01/16 13:38:01;;;;;;;102.63;45.38;;;6.50;99.90;;;;;;4844086;29;20048;-79
2022/01/16 13:40:27;;;;;;;107.07;46.88;;;6.50;99.90;;;;;;4842477;29;20037;-79
2022/01/16 13:43:03;;;;;;;105.47;46.67;;;6.60;99.90;;;;;;4842476;29;20063;-79
2022/01/16 13:45:38;;;;;;;124.15;50.83;;;6.50;99.90;;;;;;4841199;29;20042;-78
2022/01/16 13:48:15;;;;;;;114.22;48.97;;;6.60;99.90;;;;;;4823686;29;20056;-78
2022/01/16 13:50:58;;;;;;;112.40;49.80;;;6.60;99.90;;;;;;4838855;29;20046;-79
2022/01/16 13:53:38;;;;;;;129.75;55.13;;;6.60;99.90;;;;;;4820499;29;20037;-79
2022/01/16 13:56:29;;;;;;;120.25;51.95;;;6.60;99.90;;;;;;4838201;29;20037;-79
2022/01/16 13:58:57;;;;;;;115.57;50.38;;;6.70;99.90;;;;;;4816394;29;20053;-79
2022/01/16 14:01:47;;;;;;;124.10;51.25;;;6.70;99.90;;;;;;4838973;29;20034;-80
2022/01/16 14:04:16;;;;;;;104.28;45.42;;;6.70;99.90;;;;;;4842353;29;20049;-79
2022/01/16 14:06:51;;;;;;;99.75;44.33;;;6.70;99.90;;;;;;4827325;29;20105;-80
2022/01/16 14:09:28;;;;;;;103.32;47.13;;;6.70;99.90;;;;;;4840857;29;20042;-79
2022/01/16 14:11:58;;;;;;;108.43;48.10;;;6.70;99.90;;;;;;4852122;29;20046;-79
2022/01/16 14:14:42;;;;;;;108.78;46.95;;;6.70;99.90;;;;;;4839882;29;20049;-79